Kouwamaru — JG4745 — position and weather

sailwx.info

Track history (hours):
 
Tides and Currents Weather Stations Pressure Air Temp Water Temp Dewpoint Dewpoint Depression Visibility Wind Speed Wind Dir Waves Ship Positions

Kouwamaru

Last reported at 2018-Feb-21 18:34 UTC. Time now 2018-Feb-21 19:15 UTC.
Position N 33°51' E 135°01'.

Length 54 m.

Type: Ship. MMSI: 431100411.

Date/timePositionNaut miles runAvg speedWind from/ knotsBaromVisibWave heightAir tempDewpointWater temp
2018-Feb-21 18:34N 33°51' E 135°01'111.1
2018-Feb-21 18:26N 33°52' E 135°00'510.7
2018-Feb-21 18:00N 33°56' E 134°56'910.5
2018-Feb-21 17:06N 34°03' E 134°49'  
2018-Feb-19 10:04N 34°21' E 134°25'110.3
2018-Feb-19 10:00N 34°21' E 134°25'610.6
2018-Feb-19 09:28N 34°18' E 134°31'810.1
2018-Feb-19 08:39N 34°14' E 134°39'6 9.7
2018-Feb-19 08:01N 34°09' E 134°44'1 9.6
2018-Feb-19 07:52N 34°08' E 134°45'4 9.8
2018-Feb-19 07:30N 34°05' E 134°48'610.0
2018-Feb-19 06:53N 34°01' E 134°53'410.3
2018-Feb-19 06:28N 33°57' E 134°57'186 8.0
2018-Feb-18 07:12N 34°36' E 138°36'10 9.3
2018-Feb-18 06:05N 34°35' E 138°49'2 8.5
2018-Feb-18 05:50N 34°35' E 138°51'3 8.9
2018-Feb-18 05:28N 34°36' E 138°55'7 8.7
2018-Feb-18 04:37N 34°41' E 139°02'36 9.4
2018-Feb-18 00:48N 35°05' E 139°34'310.5
2018-Feb-18 00:29N 35°06' E 139°38'710.4
2018-Feb-17 23:50N 35°11' E 139°44'410.5
2018-Feb-17 23:29N 35°14' E 139°46'510.8
2018-Feb-17 23:00N 35°19' E 139°43'510.5
2018-Feb-17 22:30N 35°24' E 139°43'5 9.9
2018-Feb-17 22:00N 35°29' E 139°42'0 0.4
2018-Feb-17 21:24N 35°29' E 139°42'0 0.0
2018-Feb-17 21:00N 35°29' E 139°42'0 0.0
2018-Feb-17 20:30N 35°29' E 139°42'0 0.0
2018-Feb-17 20:00N 35°29' E 139°42'0 0.0
2018-Feb-17 19:27N 35°29' E 139°42'0 0.0
2018-Feb-17 19:00N 35°29' E 139°42'0 0.0
2018-Feb-17 18:27N 35°29' E 139°42'0 0.0
2018-Feb-17 18:00N 35°29' E 139°42'0 0.0
2018-Feb-17 17:30N 35°29' E 139°42'0 0.0
2018-Feb-17 16:56N 35°29' E 139°42'0 0.0
2018-Feb-17 16:26N 35°29' E 139°42'0 0.0
2018-Feb-17 15:53N 35°29' E 139°42'0 0.0
2018-Feb-17 15:29N 35°29' E 139°42'0 0.0
2018-Feb-17 14:56N 35°29' E 139°42'0 0.0
2018-Feb-17 14:26N 35°29' E 139°42'0 0.0
2018-Feb-17 13:50N 35°29' E 139°42'0 0.0
2018-Feb-17 13:29N 35°29' E 139°42'0 0.0
2018-Feb-17 12:59N 35°29' E 139°42'0 0.0
2018-Feb-17 12:29N 35°29' E 139°42'0 0.0
2018-Feb-17 11:56N 35°29' E 139°42'0 0.0
2018-Feb-17 11:26N 35°29' E 139°42'0 0.0
2018-Feb-17 10:59N 35°29' E 139°42'0 0.0
2018-Feb-17 10:29N 35°29' E 139°42'0 0.0
2018-Feb-17 09:59N 35°29' E 139°42'0 0.0
2018-Feb-17 09:29N 35°29' E 139°42'0 0.0
2018-Feb-17 08:53N 35°29' E 139°42'0 0.0
2018-Feb-17 08:29N 35°29' E 139°42'0 0.0
2018-Feb-17 07:59N 35°29' E 139°42'0 0.0
2018-Feb-17 07:29N 35°29' E 139°42'0 0.0
2018-Feb-17 06:56N 35°29' E 139°42'0 0.0
2018-Feb-17 06:23N 35°29' E 139°42'0 0.0
2018-Feb-17 05:53N 35°29' E 139°42'0 0.0
2018-Feb-17 05:26N 35°29' E 139°42'1 2.2
2018-Feb-17 04:59N 35°29' E 139°43'1510.1
2018-Feb-17 03:33N 35°32' E 140°00'110.5
2018-Feb-17 03:29N 35°32' E 140°01'2 0.4
2018-Feb-16 23:20N 35°32' E 140°03'1 3.5
2018-Feb-16 22:58N 35°33' E 140°03'4 8.9
2018-Feb-16 22:30N 35°36' E 140°06'0 0.5
2018-Feb-16 21:56N 35°36' E 140°06'0 0.0
2018-Feb-16 21:26N 35°36' E 140°06'0 0.0
2018-Feb-16 20:56N 35°36' E 140°06'0 0.0
2018-Feb-16 20:29N 35°36' E 140°06'0 0.0
2018-Feb-16 19:56N 35°36' E 140°06'0 0.0
2018-Feb-16 19:26N 35°36' E 140°06'0 0.0
2018-Feb-16 18:56N 35°36' E 140°06'0 0.0
2018-Feb-16 18:29N 35°36' E 140°06'0 0.0
2018-Feb-16 17:56N 35°36' E 140°06'0 0.0
2018-Feb-16 17:29N 35°36' E 140°06'0 0.0
2018-Feb-16 16:59N 35°36' E 140°06'0 0.0
2018-Feb-16 16:26N 35°36' E 140°06'0 0.0
2018-Feb-16 15:59N 35°36' E 140°06'0 0.0
2018-Feb-16 15:26N 35°36' E 140°06'0 0.0
2018-Feb-16 14:59N 35°36' E 140°06'0 0.0
2018-Feb-16 14:29N 35°36' E 140°06'0 0.0
2018-Feb-16 13:59N 35°36' E 140°06'0 0.0
2018-Feb-16 13:29N 35°36' E 140°06'0 0.0
2018-Feb-16 12:59N 35°36' E 140°06'0 0.0
2018-Feb-16 12:29N 35°36' E 140°06'0 0.0
2018-Feb-16 11:59N 35°36' E 140°06'0 0.0
2018-Feb-16 11:29N 35°36' E 140°06'0 0.0
2018-Feb-16 10:59N 35°36' E 140°06'0 0.0
2018-Feb-16 10:26N 35°36' E 140°06'0 0.0
2018-Feb-16 09:59N 35°36' E 140°06'0 0.0
2018-Feb-16 09:29N 35°36' E 140°06'0 0.0
2018-Feb-16 08:56N 35°36' E 140°06'0 0.0
2018-Feb-16 08:26N 35°36' E 140°06'0 0.0
2018-Feb-16 07:56N 35°36' E 140°06'0 0.0
2018-Feb-16 07:26N 35°36' E 140°06'0 0.0
2018-Feb-16 06:56N 35°36' E 140°06'0 0.0
2018-Feb-16 06:29N 35°36' E 140°06'0 0.0
2018-Feb-16 05:58N 35°36' E 140°06'10 2.3
2018-Feb-16 01:33N 35°30' E 139°56'210.3
2018-Feb-16 01:22N 35°30' E 139°54'410.4
2018-Feb-16 00:59N 35°30' E 139°49'3 3.7
2018-Feb-16 00:18N 35°31' E 139°46'0 0.0
2018-Feb-15 22:57N 35°31' E 139°46'1 3.0
2018-Feb-15 22:27N 35°30' E 139°47'1 2.5
2018-Feb-15 21:52N 35°29' E 139°48'1 3.4
2018-Feb-15 21:28N 35°28' E 139°48'4 9.0
2018-Feb-15 21:00N 35°24' E 139°46'5 9.9
2018-Feb-15 20:30N 35°19' E 139°44'7 9.7
2018-Feb-15 19:49N 35°13' E 139°47'5610.4
2018-Feb-15 14:23N 34°35' E 138°56'199 9.5
2018-Feb-14 17:23N 33°52' E 135°01'610.8
2018-Feb-14 16:52N 33°56' E 134°57'911.0
2018-Feb-14 16:03N 34°03' E 134°50'111.1
2018-Feb-14 16:00N 34°03' E 134°49'106 4.8
2018-Feb-13 17:53N 33°52' E 132°42'410.0
2018-Feb-13 17:30N 33°56' E 132°43'9410.3
2018-Feb-13 08:23N 34°28' E 134°29'710.3
2018-Feb-13 07:44N 34°31' E 134°37'3 9.8
2018-Feb-13 07:26N 34°32' E 134°40'4 9.8
2018-Feb-13 06:58N 34°33' E 134°45'5 9.7
2018-Feb-13 06:30N 34°35' E 134°50'5 9.2
2018-Feb-13 05:58N 34°37' E 134°56'4 8.1
2018-Feb-13 05:30N 34°37' E 135°00'4 7.1
2018-Feb-13 05:00N 34°36' E 135°04'5 9.3
2018-Feb-13 04:30N 34°36' E 135°10'5 9.5
2018-Feb-13 04:00N 34°37' E 135°16'5 9.5
2018-Feb-13 03:30N 34°39' E 135°21'4 8.8
2018-Feb-13 03:00N 34°38' E 135°27'1 1.7
2018-Feb-13 02:30N 34°38' E 135°27'0 0.0
2018-Feb-13 02:00N 34°38' E 135°27'0 0.0
2018-Feb-13 01:30N 34°38' E 135°27'0 0.0
2018-Feb-13 01:00N 34°38' E 135°27'0 0.0
2018-Feb-13 00:30N 34°38' E 135°27'0 0.0
2018-Feb-13 00:00N 34°38' E 135°27'3 6.1
2018-Feb-12 23:30N 34°38' E 135°24'510.5
2018-Feb-12 23:00N 34°36' E 135°18'510.7
2018-Feb-12 22:30N 34°36' E 135°12'510.3
2018-Feb-12 22:00N 34°35' E 135°05'4 7.9
2018-Feb-12 21:30N 34°37' E 135°01'4 7.5
2018-Feb-12 21:00N 34°36' E 134°57'4 8.8
2018-Feb-12 20:30N 34°34' E 134°52'5 9.7
2018-Feb-12 20:00N 34°32' E 134°47'510.3
2018-Feb-12 19:30N 34°30' E 134°41'510.4
2018-Feb-12 18:59N 34°28' E 134°35'99 4.1
2018-Feb-11 18:46N 33°55' E 132°42'  
Track history (hours):
 
Tides and Currents Weather Stations Pressure Air Temp Water Temp Dewpoint Dewpoint Depression Visibility Wind Speed Wind Dir Waves Ship Positions

Kouwamaru

Last reported at 2018-Feb-21 18:34 UTC. Time now 2018-Feb-21 19:15 UTC.
Position N 33°51' E 135°01'.

Length 54 m.

Type: Ship. MMSI: 431100411.

Date/timePositionNaut miles runAvg speedWind from/ knotsBaromVisibWave heightAir tempDewpointWater temp
2018-Feb-21 18:34N 33°51' E 135°01'111.1
2018-Feb-21 18:26N 33°52' E 135°00'510.7
2018-Feb-21 18:00N 33°56' E 134°56'910.5
2018-Feb-21 17:06N 34°03' E 134°49'  
2018-Feb-19 10:04N 34°21' E 134°25'110.3
2018-Feb-19 10:00N 34°21' E 134°25'610.6
2018-Feb-19 09:28N 34°18' E 134°31'810.1
2018-Feb-19 08:39N 34°14' E 134°39'6 9.7
2018-Feb-19 08:01N 34°09' E 134°44'1 9.6
2018-Feb-19 07:52N 34°08' E 134°45'4 9.8
2018-Feb-19 07:30N 34°05' E 134°48'610.0
2018-Feb-19 06:53N 34°01' E 134°53'410.3
2018-Feb-19 06:28N 33°57' E 134°57'186 8.0
2018-Feb-18 07:12N 34°36' E 138°36'10 9.3
2018-Feb-18 06:05N 34°35' E 138°49'2 8.5
2018-Feb-18 05:50N 34°35' E 138°51'3 8.9
2018-Feb-18 05:28N 34°36' E 138°55'7 8.7
2018-Feb-18 04:37N 34°41' E 139°02'36 9.4
2018-Feb-18 00:48N 35°05' E 139°34'310.5
2018-Feb-18 00:29N 35°06' E 139°38'710.4
2018-Feb-17 23:50N 35°11' E 139°44'410.5
2018-Feb-17 23:29N 35°14' E 139°46'510.8
2018-Feb-17 23:00N 35°19' E 139°43'510.5
2018-Feb-17 22:30N 35°24' E 139°43'5 9.9
2018-Feb-17 22:00N 35°29' E 139°42'0 0.4
2018-Feb-17 21:24N 35°29' E 139°42'0 0.0
2018-Feb-17 21:00N 35°29' E 139°42'0 0.0
2018-Feb-17 20:30N 35°29' E 139°42'0 0.0
2018-Feb-17 20:00N 35°29' E 139°42'0 0.0
2018-Feb-17 19:27N 35°29' E 139°42'0 0.0
2018-Feb-17 19:00N 35°29' E 139°42'0 0.0
2018-Feb-17 18:27N 35°29' E 139°42'0 0.0
2018-Feb-17 18:00N 35°29' E 139°42'0 0.0
2018-Feb-17 17:30N 35°29' E 139°42'0 0.0
2018-Feb-17 16:56N 35°29' E 139°42'0 0.0
2018-Feb-17 16:26N 35°29' E 139°42'0 0.0
2018-Feb-17 15:53N 35°29' E 139°42'0 0.0
2018-Feb-17 15:29N 35°29' E 139°42'0 0.0
2018-Feb-17 14:56N 35°29' E 139°42'0 0.0
2018-Feb-17 14:26N 35°29' E 139°42'0 0.0
2018-Feb-17 13:50N 35°29' E 139°42'0 0.0
2018-Feb-17 13:29N 35°29' E 139°42'0 0.0
2018-Feb-17 12:59N 35°29' E 139°42'0 0.0
2018-Feb-17 12:29N 35°29' E 139°42'0 0.0
2018-Feb-17 11:56N 35°29' E 139°42'0 0.0
2018-Feb-17 11:26N 35°29' E 139°42'0 0.0
2018-Feb-17 10:59N 35°29' E 139°42'0 0.0
2018-Feb-17 10:29N 35°29' E 139°42'0 0.0
2018-Feb-17 09:59N 35°29' E 139°42'0 0.0
2018-Feb-17 09:29N 35°29' E 139°42'0 0.0
2018-Feb-17 08:53N 35°29' E 139°42'0 0.0
2018-Feb-17 08:29N 35°29' E 139°42'0 0.0
2018-Feb-17 07:59N 35°29' E 139°42'0 0.0
2018-Feb-17 07:29N 35°29' E 139°42'0 0.0
2018-Feb-17 06:56N 35°29' E 139°42'0 0.0
2018-Feb-17 06:23N 35°29' E 139°42'0 0.0
2018-Feb-17 05:53N 35°29' E 139°42'0 0.0
2018-Feb-17 05:26N 35°29' E 139°42'1 2.2
2018-Feb-17 04:59N 35°29' E 139°43'1510.1
2018-Feb-17 03:33N 35°32' E 140°00'110.5
2018-Feb-17 03:29N 35°32' E 140°01'2 0.4
2018-Feb-16 23:20N 35°32' E 140°03'1 3.5
2018-Feb-16 22:58N 35°33' E 140°03'4 8.9
2018-Feb-16 22:30N 35°36' E 140°06'0 0.5
2018-Feb-16 21:56N 35°36' E 140°06'0 0.0
2018-Feb-16 21:26N 35°36' E 140°06'0 0.0
2018-Feb-16 20:56N 35°36' E 140°06'0 0.0
2018-Feb-16 20:29N 35°36' E 140°06'0 0.0
2018-Feb-16 19:56N 35°36' E 140°06'0 0.0
2018-Feb-16 19:26N 35°36' E 140°06'0 0.0
2018-Feb-16 18:56N 35°36' E 140°06'0 0.0
2018-Feb-16 18:29N 35°36' E 140°06'0 0.0
2018-Feb-16 17:56N 35°36' E 140°06'0 0.0
2018-Feb-16 17:29N 35°36' E 140°06'0 0.0
2018-Feb-16 16:59N 35°36' E 140°06'0 0.0
2018-Feb-16 16:26N 35°36' E 140°06'0 0.0
2018-Feb-16 15:59N 35°36' E 140°06'0 0.0
2018-Feb-16 15:26N 35°36' E 140°06'0 0.0
2018-Feb-16 14:59N 35°36' E 140°06'0 0.0
2018-Feb-16 14:29N 35°36' E 140°06'0 0.0
2018-Feb-16 13:59N 35°36' E 140°06'0 0.0
2018-Feb-16 13:29N 35°36' E 140°06'0 0.0
2018-Feb-16 12:59N 35°36' E 140°06'0 0.0
2018-Feb-16 12:29N 35°36' E 140°06'0 0.0
2018-Feb-16 11:59N 35°36' E 140°06'0 0.0
2018-Feb-16 11:29N 35°36' E 140°06'0 0.0
2018-Feb-16 10:59N 35°36' E 140°06'0 0.0
2018-Feb-16 10:26N 35°36' E 140°06'0 0.0
2018-Feb-16 09:59N 35°36' E 140°06'0 0.0
2018-Feb-16 09:29N 35°36' E 140°06'0 0.0
2018-Feb-16 08:56N 35°36' E 140°06'0 0.0
2018-Feb-16 08:26N 35°36' E 140°06'0 0.0
2018-Feb-16 07:56N 35°36' E 140°06'0 0.0
2018-Feb-16 07:26N 35°36' E 140°06'0 0.0
2018-Feb-16 06:56N 35°36' E 140°06'0 0.0
2018-Feb-16 06:29N 35°36' E 140°06'0 0.0
2018-Feb-16 05:58N 35°36' E 140°06'10 2.3
2018-Feb-16 01:33N 35°30' E 139°56'210.3
2018-Feb-16 01:22N 35°30' E 139°54'410.4
2018-Feb-16 00:59N 35°30' E 139°49'3 3.7
2018-Feb-16 00:18N 35°31' E 139°46'0 0.0
2018-Feb-15 22:57N 35°31' E 139°46'1 3.0
2018-Feb-15 22:27N 35°30' E 139°47'1 2.5
2018-Feb-15 21:52N 35°29' E 139°48'1 3.4
2018-Feb-15 21:28N 35°28' E 139°48'4 9.0
2018-Feb-15 21:00N 35°24' E 139°46'5 9.9
2018-Feb-15 20:30N 35°19' E 139°44'7 9.7
2018-Feb-15 19:49N 35°13' E 139°47'5610.4
2018-Feb-15 14:23N 34°35' E 138°56'199 9.5
2018-Feb-14 17:23N 33°52' E 135°01'610.8
2018-Feb-14 16:52N 33°56' E 134°57'911.0
2018-Feb-14 16:03N 34°03' E 134°50'111.1
2018-Feb-14 16:00N 34°03' E 134°49'106 4.8
2018-Feb-13 17:53N 33°52' E 132°42'410.0
2018-Feb-13 17:30N 33°56' E 132°43'9410.3
2018-Feb-13 08:23N 34°28' E 134°29'710.3
2018-Feb-13 07:44N 34°31' E 134°37'3 9.8
2018-Feb-13 07:26N 34°32' E 134°40'4 9.8
2018-Feb-13 06:58N 34°33' E 134°45'5 9.7
2018-Feb-13 06:30N 34°35' E 134°50'5 9.2
2018-Feb-13 05:58N 34°37' E 134°56'4 8.1
2018-Feb-13 05:30N 34°37' E 135°00'4 7.1
2018-Feb-13 05:00N 34°36' E 135°04'5 9.3
2018-Feb-13 04:30N 34°36' E 135°10'5 9.5
2018-Feb-13 04:00N 34°37' E 135°16'5 9.5
2018-Feb-13 03:30N 34°39' E 135°21'4 8.8
2018-Feb-13 03:00N 34°38' E 135°27'1 1.7
2018-Feb-13 02:30N 34°38' E 135°27'0 0.0
2018-Feb-13 02:00N 34°38' E 135°27'0 0.0
2018-Feb-13 01:30N 34°38' E 135°27'0 0.0
2018-Feb-13 01:00N 34°38' E 135°27'0 0.0
2018-Feb-13 00:30N 34°38' E 135°27'0 0.0
2018-Feb-13 00:00N 34°38' E 135°27'3 6.1
2018-Feb-12 23:30N 34°38' E 135°24'510.5
2018-Feb-12 23:00N 34°36' E 135°18'510.7
2018-Feb-12 22:30N 34°36' E 135°12'510.3
2018-Feb-12 22:00N 34°35' E 135°05'4 7.9
2018-Feb-12 21:30N 34°37' E 135°01'4 7.5
2018-Feb-12 21:00N 34°36' E 134°57'4 8.8
2018-Feb-12 20:30N 34°34' E 134°52'5 9.7
2018-Feb-12 20:00N 34°32' E 134°47'510.3
2018-Feb-12 19:30N 34°30' E 134°41'510.4
2018-Feb-12 18:59N 34°28' E 134°35'99 4.1
2018-Feb-11 18:46N 33°55' E 132°42'  

Dump ship's entire track history